createdAt,value
2023-04-19T00:19:49.470Z,9.9
2023-04-19T00:39:49.397Z,9.9
2023-04-19T00:59:49.397Z,9.9
2023-04-19T01:19:49.342Z,9.9
2023-04-19T01:39:49.339Z,9.89
2023-04-19T01:59:49.342Z,9.89
2023-04-19T02:19:49.282Z,9.89
2023-04-19T02:59:49.279Z,9.88
2023-04-19T03:19:49.271Z,9.88
2023-04-19T03:39:49.247Z,9.88
2023-04-19T03:59:49.182Z,9.88
2023-04-19T04:19:49.285Z,9.88
2023-04-19T05:39:49.145Z,9.87
2023-04-19T05:59:49.131Z,9.86
2023-04-19T06:19:49.110Z,9.86
2023-04-19T06:39:49.106Z,9.86
2023-04-19T06:59:49.067Z,9.85
2023-04-19T07:19:49.061Z,9.85
2023-04-19T07:39:49.027Z,9.85
2023-04-19T07:59:48.997Z,9.85
2023-04-19T08:19:48.978Z,9.84
2023-04-19T08:39:48.986Z,9.84
2023-04-19T08:59:48.948Z,9.84
2023-04-19T09:19:48.992Z,9.83
2023-04-19T09:39:48.914Z,9.83
2023-04-19T09:59:48.862Z,9.82
2023-04-19T10:19:48.841Z,9.81
2023-04-19T10:39:48.557Z,9.8
2023-04-19T10:59:48.789Z,9.79
2023-04-19T11:19:48.745Z,9.78
2023-04-19T11:39:48.731Z,9.78
2023-04-19T11:59:48.738Z,9.77
2023-04-19T12:19:48.672Z,9.77
2023-04-19T12:39:48.636Z,9.77
2023-04-19T12:59:48.613Z,9.77
2023-04-19T13:19:48.602Z,9.78
2023-04-19T13:39:48.561Z,9.79
2023-04-19T13:59:48.496Z,9.8
2023-04-19T14:19:48.473Z,9.82
2023-04-19T14:39:48.469Z,9.83
2023-04-19T14:59:48.405Z,9.84
2023-04-19T15:19:48.385Z,9.85
2023-04-19T15:39:48.375Z,9.86
2023-04-19T15:59:48.322Z,9.89
2023-04-19T16:19:48.293Z,9.92
2023-04-19T16:39:48.252Z,9.94
2023-04-19T16:59:48.199Z,9.95
2023-04-19T17:19:48.227Z,9.97
2023-04-19T17:39:48.164Z,10.01
2023-04-19T17:59:48.135Z,10.04
2023-04-19T18:19:48.088Z,10.05
2023-04-19T18:39:48.147Z,10.06
2023-04-19T18:59:48.090Z,10.08
2023-04-19T19:19:48.053Z,10.11
2023-04-19T19:39:47.797Z,10.15
2023-04-19T19:59:52.607Z,10.15
2023-04-19T20:19:47.978Z,10.16
2023-04-19T20:39:47.968Z,10.16
2023-04-19T20:59:47.696Z,10.18
2023-04-19T21:19:47.969Z,10.19
2023-04-19T21:39:47.928Z,10.2
2023-04-19T21:59:47.926Z,10.21
2023-04-19T22:19:47.907Z,10.22
